logo
Search for airport 
image banner adimage banner adimage banner ad
image banner ad

SESL - San Lorenzo

Located in San Fernando, Ecuador

ICAO - , IATA -

Data provided by Airmate  

General information

Coordinates: N1°15'53" W78°47'50"
Elevation is 128 feet MSL.
Magnetic variation is -4° East
View others Airports in Esmeraldas

Operational data

Special qualification required
Current time UTC:
Current local time:
Weather at : - ( 0 km )
METAR: YFRT 180143Z AUTO 17008KT 4700 +SHRA SCT006 BKN016 BKN024 14/13 Q1019
View NOTAMs / SUP AIP / TFR affecting this airport [VIEW]
Communications frequencies: [VIEW]

Runways:

RWY identifierQFULength (ft)Width (ft)SurfaceLDA (ft)
31306°312882DIRT
13126°312882DIRT

Airport contact information

Address: San Fernando Ecuador

Satellite view of SESL